Time;durP1;ratioP1;P1;durP2;ratioP2;P2;SDS_P1;SDS_P2;PMS_P1;PMS_P2;Temp;Humidity;BMP_temperature;BMP_pressure;BME280_temperature;BME280_humidity;BME280_pressure;Samples;Min_cycle;Max_cycle;Signal;HPM_P1;HPM_P2
2024/03/29 01:43:23;;;;;;;1.58;1.00;;;9.30;99.90;;;;;;5081002;28;20204;-84
2024/03/29 01:45:54;;;;;;;0.85;0.57;;;9.30;99.90;;;;;;5081917;28;20214;-85
2024/03/29 01:48:22;;;;;;;0.50;0.50;;;9.40;99.90;;;;;;5086182;28;20221;-84
2024/03/29 01:50:49;;;;;;;0.50;0.40;;;9.40;99.90;;;;;;5088547;28;20198;-83
2024/03/29 01:53:18;;;;;;;0.60;0.50;;;9.50;99.90;;;;;;5087947;28;20661;-84
2024/03/29 01:55:45;;;;;;;2.65;1.02;;;9.60;99.90;;;;;;5088102;28;20441;-83
2024/03/29 01:58:14;;;;;;;9.10;0.88;;;9.60;99.90;;;;;;5087879;28;20712;-82
2024/03/29 02:00:49;;;;;;;0.50;0.40;;;9.60;99.90;;;;;;5075373;28;20195;-84
2024/03/29 02:03:16;;;;;;;4.83;0.53;;;9.60;99.90;;;;;;5075246;28;20206;-81
2024/03/29 02:05:44;;;;;;;0.50;0.40;;;9.60;99.90;;;;;;5075110;28;20480;-81
2024/03/29 02:08:11;;;;;;;0.70;0.60;;;9.60;99.90;;;;;;5075591;28;20589;-83
2024/03/29 02:10:39;;;;;;;1.17;0.70;;;9.60;99.90;;;;;;5075627;28;20217;-83
2024/03/29 02:13:05;;;;;;;0.50;0.40;;;9.70;99.90;;;;;;5075224;28;20194;-83
2024/03/29 02:15:33;;;;;;;0.50;0.50;;;9.70;99.90;;;;;;5075547;28;20202;-83
2024/03/29 02:17:59;;;;;;;0.50;0.40;;;9.70;99.90;;;;;;5075001;28;20214;-82
2024/03/29 02:20:27;;;;;;;0.80;0.50;;;9.60;99.90;;;;;;5075324;28;20725;-83
2024/03/29 02:22:55;;;;;;;0.50;0.40;;;9.60;99.90;;;;;;5075067;28;20204;-83
2024/03/29 02:25:24;;;;;;;0.50;0.40;;;9.60;99.90;;;;;;5074837;28;20210;-84
2024/03/29 02:27:52;;;;;;;0.50;0.40;;;9.60;99.90;;;;;;5074971;28;20731;-83
2024/03/29 02:30:19;;;;;;;0.50;0.40;;;9.60;99.90;;;;;;5075056;28;20256;-83
2024/03/29 02:32:46;;;;;;;0.73;0.60;;;9.60;99.90;;;;;;5078840;28;20194;-84
2024/03/29 02:35:13;;;;;;;1.17;0.70;;;9.60;99.90;;;;;;5082306;28;20198;-85
2024/03/29 02:37:39;;;;;;;0.60;0.60;;;9.60;99.90;;;;;;5085786;28;20460;-83
2024/03/29 02:40:08;;;;;;;0.50;0.40;;;9.60;99.90;;;;;;5091178;28;20206;-83
2024/03/29 02:42:36;;;;;;;0.50;0.40;;;9.60;99.90;;;;;;5086311;28;20206;-83
2024/03/29 02:45:04;;;;;;;0.50;0.40;;;9.70;99.90;;;;;;5075787;28;20425;-82
2024/03/29 02:47:31;;;;;;;0.50;0.50;;;9.70;99.90;;;;;;5076032;28;20214;-82
2024/03/29 02:49:57;;;;;;;1.47;0.50;;;9.80;99.90;;;;;;5076304;28;20823;-83
2024/03/29 02:52:25;;;;;;;0.50;0.50;;;9.80;99.90;;;;;;5076440;28;20439;-82
2024/03/29 02:54:51;;;;;;;5.95;0.77;;;9.90;99.90;;;;;;5075381;28;20474;-82
2024/03/29 02:57:18;;;;;;;0.50;0.40;;;10.00;99.90;;;;;;5074829;28;20213;-83
2024/03/29 02:59:45;;;;;;;0.70;0.70;;;10.20;99.90;;;;;;5075852;28;20202;-83
2024/03/29 03:02:11;;;;;;;0.70;0.70;;;10.20;99.90;;;;;;5075569;28;20443;-84
2024/03/29 03:04:37;;;;;;;0.50;0.40;;;10.10;99.90;;;;;;5075116;28;20198;-83
2024/03/29 03:12:30;;;;;;;1.83;0.70;;;9.90;99.90;;;;;;5053522;28;20478;-83
2024/03/29 03:14:58;;;;;;;0.60;0.60;;;9.60;99.90;;;;;;5074328;28;20448;-82
2024/03/29 03:17:26;;;;;;;0.50;0.50;;;9.40;99.90;;;;;;5074334;28;20242;-82
2024/03/29 03:19:52;;;;;;;0.50;0.40;;;9.30;99.90;;;;;;5075962;28;20194;-82
2024/03/29 03:22:18;;;;;;;1.25;0.60;;;9.20;99.90;;;;;;5074520;28;20194;-82
2024/03/29 03:24:45;;;;;;;0.73;0.73;;;9.10;99.90;;;;;;5074850;28;20197;-83
2024/03/29 03:27:11;;;;;;;1.13;0.93;;;9.00;99.90;;;;;;5073955;28;20271;-82
2024/03/29 03:29:37;;;;;;;0.50;0.40;;;9.10;99.90;;;;;;5073930;28;20199;-82
2024/03/29 03:32:07;;;;;;;0.50;0.40;;;9.00;99.90;;;;;;5074102;28;20201;-82
2024/03/29 03:34:33;;;;;;;0.60;0.50;;;9.00;99.90;;;;;;5073706;28;20194;-82
2024/03/29 03:37:00;;;;;;;0.50;0.40;;;9.00;99.90;;;;;;5073131;28;20230;-83
2024/03/29 03:39:26;;;;;;;0.50;0.50;;;9.00;99.90;;;;;;5073470;28;20284;-82
2024/03/29 03:41:53;;;;;;;0.50;0.40;;;9.00;99.90;;;;;;5073214;28;20352;-82
2024/03/29 03:44:18;;;;;;;0.50;0.40;;;9.00;99.90;;;;;;5073190;28;20200;-83
2024/03/29 03:46:45;;;;;;;0.60;0.60;;;9.10;99.90;;;;;;5073022;28;20220;-83
2024/03/29 03:49:12;;;;;;;0.50;0.40;;;9.00;99.90;;;;;;5073102;28;20460;-82
2024/03/29 03:51:39;;;;;;;0.50;0.40;;;9.00;99.90;;;;;;5072780;28;20226;-83
2024/03/29 03:54:05;;;;;;;0.50;0.50;;;9.10;99.90;;;;;;5071401;28;20199;-83
2024/03/29 03:56:32;;;;;;;0.50;0.50;;;9.00;99.90;;;;;;5072415;28;20493;-83
2024/03/29 03:58:58;;;;;;;0.90;0.60;;;9.00;99.90;;;;;;5072303;28;20731;-83
2024/03/29 04:01:25;;;;;;;0.50;0.40;;;9.00;99.90;;;;;;5072793;28;20440;-84
2024/03/29 04:03:50;;;;;;;0.50;0.40;;;8.90;99.90;;;;;;5073116;28;20198;-83
2024/03/29 04:06:18;;;;;;;0.50;0.40;;;8.90;99.90;;;;;;5078698;28;20264;-83
2024/03/29 04:08:44;;;;;;;0.50;0.40;;;8.80;99.90;;;;;;5077588;28;20210;-84
2024/03/29 04:11:11;;;;;;;0.73;0.50;;;8.70;99.90;;;;;;5078482;28;20216;-84
2024/03/29 04:13:38;;;;;;;0.50;0.40;;;8.70;99.90;;;;;;5078973;28;20519;-84
2024/03/29 04:16:06;;;;;;;0.50;0.40;;;8.70;99.90;;;;;;5079744;28;21149;-83
2024/03/29 04:18:32;;;;;;;4.65;0.93;;;8.60;99.90;;;;;;5079587;28;20237;-84
2024/03/29 04:20:59;;;;;;;0.60;0.60;;;8.60;99.90;;;;;;5079733;28;20685;-83
2024/03/29 04:23:26;;;;;;;0.50;0.40;;;8.70;99.90;;;;;;5078191;28;20723;-83
2024/03/29 04:25:54;;;;;;;0.50;0.40;;;8.60;99.90;;;;;;5078271;28;20222;-85
2024/03/29 04:28:20;;;;;;;0.50;0.50;;;8.60;99.90;;;;;;5077613;28;20217;-85
2024/03/29 04:30:52;;;;;;;0.50;0.40;;;8.50;99.90;;;;;;5080171;28;20212;-85
2024/03/29 04:33:18;;;;;;;0.63;0.63;;;8.40;99.90;;;;;;5079474;28;20209;-85
2024/03/29 04:35:54;;;;;;;0.50;0.50;;;8.20;99.90;;;;;;5079174;28;20206;-85
2024/03/29 04:38:21;;;;;;;0.50;0.40;;;8.10;99.90;;;;;;5080375;28;20700;-85
2024/03/29 04:40:50;;;;;;;0.50;0.40;;;7.90;99.90;;;;;;5079784;28;20198;-85
2024/03/29 04:43:16;;;;;;;0.50;0.40;;;7.90;99.90;;;;;;5079608;28;20191;-85
2024/03/29 04:45:45;;;;;;;0.50;0.40;;;7.80;99.90;;;;;;5079361;28;20258;-85
2024/03/29 04:48:12;;;;;;;0.50;0.40;;;7.80;99.90;;;;;;5078437;28;20221;-85
2024/03/29 04:50:39;;;;;;;0.50;0.40;;;7.70;99.90;;;;;;5078804;28;20202;-85
2024/03/29 04:53:07;;;;;;;0.50;0.45;;;7.70;99.90;;;;;;5080195;28;20217;-84
2024/03/29 04:55:34;;;;;;;0.50;0.40;;;7.70;99.90;;;;;;5079941;28;20262;-84
2024/03/29 04:58:20;;;;;;;0.50;0.40;;;7.60;99.90;;;;;;5079842;28;20236;-84
2024/03/29 05:00:47;;;;;;;0.50;0.40;;;7.60;99.90;;;;;;5071693;28;20210;-84
2024/03/29 05:03:13;;;;;;;0.50;0.40;;;7.60;99.90;;;;;;5079054;28;20220;-84
2024/03/29 05:05:40;;;;;;;0.50;0.40;;;7.50;99.90;;;;;;5079272;28;20190;-83
2024/03/29 05:08:07;;;;;;;0.50;0.40;;;7.50;99.90;;;;;;5078972;28;20219;-83
2024/03/29 05:10:35;;;;;;;0.50;0.40;;;7.50;99.90;;;;;;5079447;28;20195;-83
2024/03/29 05:13:03;;;;;;;0.50;0.40;;;7.50;99.90;;;;;;5081269;28;20224;-84
2024/03/29 05:15:30;;;;;;;0.50;0.40;;;7.40;99.90;;;;;;5080715;28;20213;-84
2024/03/29 05:17:57;;;;;;;0.50;0.40;;;7.30;99.90;;;;;;5080628;28;20215;-84
2024/03/29 05:20:24;;;;;;;0.50;0.43;;;7.30;99.90;;;;;;5080517;28;20202;-84
2024/03/29 05:22:50;;;;;;;0.50;0.40;;;7.20;99.90;;;;;;5087936;28;20195;-82
2024/03/29 05:25:17;;;;;;;0.50;0.40;;;7.20;99.90;;;;;;5093923;28;20199;-82
2024/03/29 05:27:44;;;;;;;0.50;0.50;;;7.20;99.90;;;;;;5089890;28;20236;-84
2024/03/29 05:30:13;;;;;;;0.50;0.40;;;7.30;99.90;;;;;;5081916;28;20198;-83
2024/03/29 05:32:40;;;;;;;0.50;0.40;;;7.30;99.90;;;;;;5080941;28;20199;-84
2024/03/29 05:35:08;;;;;;;0.50;0.40;;;7.30;99.90;;;;;;5081432;28;20222;-83
2024/03/29 05:37:36;;;;;;;0.50;0.40;;;7.30;99.90;;;;;;5081334;28;20241;-81
2024/03/29 05:40:05;;;;;;;0.50;0.40;;;7.30;99.90;;;;;;5081576;28;20194;-84
2024/03/29 05:42:34;;;;;;;0.50;0.40;;;7.30;99.90;;;;;;5082456;28;20194;-83
2024/03/29 05:45:01;;;;;;;0.50;0.40;;;7.30;99.90;;;;;;5082309;28;20198;-84
2024/03/29 05:47:30;;;;;;;0.50;0.40;;;7.30;99.90;;;;;;5082187;28;20227;-82
2024/03/29 05:49:58;;;;;;;0.50;0.40;;;7.30;99.90;;;;;;5082473;28;20217;-83
2024/03/29 05:52:26;;;;;;;0.50;0.40;;;7.30;99.90;;;;;;5082394;28;20191;-83
2024/03/29 05:54:54;;;;;;;0.50;0.40;;;7.40;99.90;;;;;;5082092;28;20198;-82
2024/03/29 05:57:23;;;;;;;0.50;0.40;;;7.30;99.90;;;;;;5081880;28;20712;-84
2024/03/29 05:59:50;;;;;;;0.50;0.40;;;7.30;99.90;;;;;;5080604;28;20198;-83
2024/03/29 06:02:17;;;;;;;0.50;0.40;;;7.20;99.90;;;;;;5081181;28;20645;-83
2024/03/29 06:04:47;;;;;;;0.50;0.40;;;7.20;99.90;;;;;;5080624;28;20197;-83
2024/03/29 06:07:14;;;;;;;0.50;0.40;;;7.20;99.90;;;;;;5083373;28;20859;-83
2024/03/29 06:09:41;;;;;;;0.50;0.40;;;7.20;99.90;;;;;;5085591;28;20190;-83
2024/03/29 06:12:11;;;;;;;0.50;0.40;;;7.20;99.90;;;;;;5086635;28;20198;-83
2024/03/29 06:17:35;;;;;;;0.50;0.40;;;7.20;99.90;;;;;;5032423;28;20207;-83
2024/03/29 06:20:04;;;;;;;0.50;0.40;;;7.20;99.90;;;;;;5074336;28;20706;-83
2024/03/29 06:22:31;;;;;;;0.50;0.40;;;7.20;99.90;;;;;;5085329;28;20194;-82
2024/03/29 06:25:04;;;;;;;0.50;0.40;;;7.30;99.90;;;;;;5082220;28;20191;-83
2024/03/29 06:27:31;;;;;;;0.50;0.40;;;7.30;99.90;;;;;;5081335;28;20592;-82
2024/03/29 06:29:58;;;;;;;0.50;0.40;;;7.30;99.90;;;;;;5082400;28;20198;-84
2024/03/29 06:32:27;;;;;;;1.55;1.08;;;7.30;99.90;;;;;;5083362;28;20198;-83
2024/03/29 06:34:54;;;;;;;0.50;0.40;;;7.40;99.90;;;;;;5086714;28;20225;-84
2024/03/29 06:37:24;;;;;;;0.50;0.40;;;7.30;99.90;;;;;;5085474;28;20274;-84
2024/03/29 06:39:51;;;;;;;0.50;0.40;;;7.40;99.90;;;;;;5086907;28;20228;-84
2024/03/29 06:42:18;;;;;;;0.50;0.40;;;7.40;99.90;;;;;;5088376;28;20199;-82
2024/03/29 06:44:45;;;;;;;0.52;0.52;;;7.40;99.90;;;;;;5077098;28;20205;-83
2024/03/29 06:47:12;;;;;;;0.50;0.40;;;7.40;99.90;;;;;;5077799;28;20217;-83
2024/03/29 06:49:40;;;;;;;0.50;0.40;;;7.40;99.90;;;;;;5081748;28;20297;-82
2024/03/29 06:52:06;;;;;;;0.50;0.50;;;7.40;99.90;;;;;;5083448;28;20294;-83
2024/03/29 06:54:35;;;;;;;0.50;0.50;;;7.40;99.90;;;;;;5082028;28;20672;-82
2024/03/29 06:57:02;;;;;;;0.50;0.40;;;7.40;99.90;;;;;;5081970;28;20277;-83
2024/03/29 06:59:29;;;;;;;0.50;0.40;;;7.40;99.90;;;;;;5081277;28;20209;-82
2024/03/29 07:01:59;;;;;;;0.50;0.40;;;7.50;99.90;;;;;;5082991;28;20198;-83
2024/03/29 07:04:29;;;;;;;0.50;0.40;;;7.60;99.90;;;;;;5082089;28;20195;-82
2024/03/29 07:06:56;;;;;;;0.50;0.40;;;7.60;99.90;;;;;;5077203;28;20309;-83
2024/03/29 07:09:23;;;;;;;0.50;0.40;;;7.70;99.90;;;;;;5077567;28;20214;-82
2024/03/29 07:11:52;;;;;;;3.33;0.70;;;7.80;99.90;;;;;;5078715;28;20198;-82
2024/03/29 07:14:20;;;;;;;0.50;0.50;;;7.90;99.90;;;;;;5077310;28;20759;-82
2024/03/29 07:16:48;;;;;;;0.50;0.40;;;8.00;99.90;;;;;;5077460;28;20190;-82
2024/03/29 07:19:16;;;;;;;0.50;0.40;;;8.00;99.90;;;;;;5077780;28;20620;-82
2024/03/29 07:21:43;;;;;;;0.50;0.40;;;8.10;99.90;;;;;;5069652;28;20195;-83
2024/03/29 07:24:10;;;;;;;0.50;0.40;;;8.20;99.90;;;;;;5072572;28;20202;-82
2024/03/29 07:26:39;;;;;;;0.50;0.40;;;8.30;99.90;;;;;;5073685;28;20210;-82
2024/03/29 07:29:07;;;;;;;0.50;0.50;;;8.40;99.90;;;;;;5075460;28;20697;-81
2024/03/29 07:31:34;;;;;;;0.50;0.40;;;8.50;99.90;;;;;;5074994;28;20194;-81
2024/03/29 07:34:01;;;;;;;0.50;0.40;;;8.60;99.90;;;;;;5072635;28;20195;-84
2024/03/29 07:36:31;;;;;;;0.50;0.40;;;8.80;99.90;;;;;;5071954;28;20222;-83
2024/03/29 07:38:58;;;;;;;0.50;0.50;;;8.90;99.90;;;;;;5066770;28;20210;-83
2024/03/29 07:41:26;;;;;;;0.77;0.60;;;8.90;99.90;;;;;;5066982;28;20198;-82
2024/03/29 07:43:56;;;;;;;0.50;0.40;;;9.00;99.90;;;;;;5057981;28;20269;-82
2024/03/29 07:46:28;;;;;;;0.70;0.70;;;9.00;99.90;;;;;;5068671;28;20191;-81
2024/03/29 07:48:55;;;;;;;0.93;0.82;;;9.10;99.90;;;;;;5069731;28;20207;-81
2024/03/29 07:51:22;;;;;;;0.93;0.93;;;9.20;99.90;;;;;;5068814;28;20194;-82
2024/03/29 07:53:49;;;;;;;1.55;1.02;;;9.20;99.90;;;;;;5074118;28;20237;-83
2024/03/29 07:56:18;;;;;;;0.60;0.50;;;9.20;99.90;;;;;;5073906;28;20194;-81
2024/03/29 07:58:44;;;;;;;0.50;0.40;;;9.10;99.90;;;;;;5064095;28;20217;-81
2024/03/29 08:01:18;;;;;;;0.55;0.55;;;9.10;99.90;;;;;;5073333;28;20218;-82
2024/03/29 08:03:46;;;;;;;0.50;0.40;;;9.00;99.90;;;;;;5081229;28;20201;-83
2024/03/29 08:06:13;;;;;;;1.90;1.80;;;9.00;99.90;;;;;;5092789;28;20477;-82
2024/03/29 08:08:40;;;;;;;0.50;0.40;;;9.00;99.90;;;;;;5087293;28;20229;-84
2024/03/29 08:11:10;;;;;;;0.85;0.85;;;9.00;99.90;;;;;;5081952;28;20198;-83
2024/03/29 08:13:36;;;;;;;0.70;0.70;;;9.00;99.90;;;;;;5081269;28;20285;-83
2024/03/29 08:16:03;;;;;;;0.50;0.40;;;9.10;99.90;;;;;;5079773;28;20199;-84
2024/03/29 08:18:32;;;;;;;0.70;0.70;;;9.10;99.90;;;;;;5080441;28;20218;-83
2024/03/29 08:21:00;;;;;;;1.35;1.25;;;9.10;99.90;;;;;;5080518;28;20200;-84
2024/03/29 08:23:27;;;;;;;3.65;0.80;;;9.20;99.90;;;;;;5080681;28;20568;-85
2024/03/29 08:25:55;;;;;;;0.70;0.70;;;9.20;99.90;;;;;;5080561;28;20195;-85
2024/03/29 08:28:22;;;;;;;0.60;0.50;;;9.20;99.90;;;;;;5080312;28;20305;-83
2024/03/29 08:30:59;;;;;;;1.40;1.30;;;9.20;99.90;;;;;;5080129;28;20202;-83
2024/03/29 08:33:26;;;;;;;1.80;0.82;;;9.20;99.90;;;;;;5080156;28;20194;-83
2024/03/29 08:35:54;;;;;;;0.50;0.40;;;9.20;99.90;;;;;;5080403;28;20673;-83
2024/03/29 08:38:22;;;;;;;0.50;0.40;;;9.30;99.90;;;;;;5081250;28;20217;-83
2024/03/29 08:40:50;;;;;;;0.50;0.40;;;9.30;99.90;;;;;;5080838;28;20195;-85
2024/03/29 08:43:18;;;;;;;1.20;1.10;;;9.20;99.90;;;;;;5081392;28;20201;-81
2024/03/29 08:45:45;;;;;;;0.80;0.73;;;9.20;99.90;;;;;;5090464;28;20201;-81
2024/03/29 08:48:14;;;;;;;0.50;0.50;;;9.20;99.90;;;;;;5090673;28;20229;-83
2024/03/29 08:50:41;;;;;;;0.50;0.40;;;9.10;99.90;;;;;;5090852;28;20201;-81
2024/03/29 08:53:08;;;;;;;0.70;0.50;;;9.00;99.90;;;;;;5090796;28;20441;-81
2024/03/29 08:55:39;;;;;;;0.50;0.40;;;9.00;99.90;;;;;;5083753;28;20198;-83
2024/03/29 08:58:05;;;;;;;0.50;0.40;;;9.00;99.90;;;;;;5080223;28;20217;-83
2024/03/29 09:00:33;;;;;;;1.40;0.60;;;9.10;99.90;;;;;;5080140;28;20551;-82
2024/03/29 09:03:01;;;;;;;1.80;0.75;;;9.10;99.90;;;;;;5079192;28;20640;-82
2024/03/29 09:05:28;;;;;;;1.60;1.05;;;9.10;99.90;;;;;;5079402;28;20222;-83
2024/03/29 09:07:57;;;;;;;0.50;0.40;;;9.10;99.90;;;;;;5080317;28;20234;-83
2024/03/29 09:10:24;;;;;;;1.05;0.70;;;9.10;99.90;;;;;;5080622;28;20201;-83
2024/03/29 09:12:53;;;;;;;9.07;2.65;;;9.20;99.90;;;;;;5083543;28;20198;-83
2024/03/29 09:15:21;;;;;;;0.73;0.73;;;9.30;99.90;;;;;;5084351;28;20197;-83
2024/03/29 09:17:48;;;;;;;0.50;0.40;;;9.40;99.90;;;;;;5083675;28;20229;-83
2024/03/29 09:20:15;;;;;;;0.50;0.40;;;9.40;99.90;;;;;;5083619;28;20444;-83
2024/03/29 09:22:42;;;;;;;0.50;0.40;;;9.50;99.90;;;;;;5083417;28;20272;-83
2024/03/29 09:25:13;;;;;;;0.50;0.40;;;9.60;99.90;;;;;;5083235;28;20195;-83
2024/03/29 09:27:42;;;;;;;0.53;0.50;;;9.60;99.90;;;;;;5083847;28;20222;-83
2024/03/29 09:30:12;;;;;;;0.50;0.40;;;9.60;99.90;;;;;;5082294;28;20935;-83
2024/03/29 09:32:39;;;;;;;0.50;0.40;;;9.70;99.90;;;;;;5082557;28;20202;-82
2024/03/29 09:35:05;;;;;;;0.60;0.50;;;9.90;99.90;;;;;;5084086;28;20285;-83
2024/03/29 09:37:35;;;;;;;0.50;0.40;;;10.00;99.90;;;;;;5083699;28;20214;-82
2024/03/29 09:40:03;;;;;;;0.60;0.52;;;10.00;99.90;;;;;;5083162;28;20198;-83
2024/03/29 09:42:33;;;;;;;2.35;1.25;;;10.10;99.90;;;;;;5083624;28;20198;-83
2024/03/29 09:45:00;;;;;;;0.70;0.70;;;10.00;99.90;;;;;;5081879;28;20201;-83
2024/03/29 09:47:29;;;;;;;0.70;0.70;;;10.00;99.90;;;;;;5083751;28;20484;-83
2024/03/29 09:49:58;;;;;;;0.50;0.40;;;10.10;99.90;;;;;;5083397;28;20436;-83
2024/03/29 09:52:24;;;;;;;0.50;0.50;;;10.10;99.90;;;;;;5087362;28;20225;-83
2024/03/29 09:54:52;;;;;;;0.50;0.40;;;10.10;99.90;;;;;;5090902;28;20440;-81
2024/03/29 09:57:18;;;;;;;0.50;0.50;;;10.20;99.90;;;;;;5085690;28;20229;-83
2024/03/29 09:59:47;;;;;;;0.50;0.40;;;10.30;99.90;;;;;;5086361;28;20444;-82
2024/03/29 10:02:16;;;;;;;0.50;0.40;;;10.60;99.90;;;;;;5091919;28;20463;-82
2024/03/29 10:04:49;;;;;;;0.50;0.40;;;10.80;99.90;;;;;;5088422;28;20475;-81
2024/03/29 10:07:16;;;;;;;0.50;0.40;;;11.10;99.90;;;;;;5078209;28;20819;-81
2024/03/29 10:09:44;;;;;;;0.50;0.40;;;11.20;99.90;;;;;;5078717;28;20785;-82
2024/03/29 10:12:11;;;;;;;3.43;1.37;;;11.30;99.90;;;;;;5078095;28;20475;-82
2024/03/29 10:14:52;;;;;;;0.50;0.43;;;11.40;99.90;;;;;;5078038;28;20448;-82
2024/03/29 10:17:19;;;;;;;0.50;0.40;;;11.40;99.90;;;;;;5078150;28;20453;-82
2024/03/29 10:19:47;;;;;;;0.50;0.40;;;11.50;99.90;;;;;;5077112;28;20432;-81
2024/03/29 10:22:14;;;;;;;0.50;0.40;;;11.50;99.90;;;;;;5077779;28;20436;-82
2024/03/29 10:24:41;;;;;;;0.60;0.57;;;11.50;99.90;;;;;;5078599;28;20443;-82
2024/03/29 10:27:08;;;;;;;0.50;0.50;;;11.60;99.90;;;;;;5077106;28;20448;-83
2024/03/29 10:29:35;;;;;;;0.83;0.83;;;11.60;99.90;;;;;;5077783;28;20472;-81
2024/03/29 10:32:03;;;;;;;0.50;0.40;;;11.60;99.90;;;;;;5080452;28;20928;-81
2024/03/29 10:34:33;;;;;;;0.50;0.40;;;11.50;99.90;;;;;;5076964;28;20432;-81
2024/03/29 10:37:04;;;;;;;0.50;0.50;;;11.50;99.90;;;;;;5077676;28;20520;-82
2024/03/29 10:39:33;;;;;;;0.50;0.40;;;11.50;99.90;;;;;;5076881;28;20433;-81
2024/03/29 10:42:01;;;;;;;0.50;0.40;;;11.50;99.90;;;;;;5077175;28;20440;-83
2024/03/29 10:44:29;;;;;;;2.23;1.73;;;11.60;99.90;;;;;;5076401;28;20440;-82
2024/03/29 10:46:58;;;;;;;0.50;0.40;;;11.60;99.90;;;;;;5076670;28;20448;-82
2024/03/29 10:49:26;;;;;;;0.50;0.40;;;11.70;99.90;;;;;;5076957;28;20476;-81
2024/03/29 10:51:56;;;;;;;0.50;0.40;;;11.80;99.90;;;;;;5076525;28;20439;-81
2024/03/29 10:54:26;;;;;;;0.50;0.40;;;11.90;99.90;;;;;;5076951;28;20443;-81
2024/03/29 10:57:01;;;;;;;0.50;0.40;;;11.90;99.90;;;;;;5076460;28;20819;-82
2024/03/29 10:59:35;;;;;;;0.60;0.60;;;12.00;99.90;;;;;;5090492;28;20443;-82
2024/03/29 11:02:06;;;;;;;0.83;0.80;;;12.20;99.90;;;;;;5095387;28;20437;-82
2024/03/29 11:04:37;;;;;;;0.50;0.40;;;12.50;99.90;;;;;;5090890;28;20432;-84
2024/03/29 11:07:11;;;;;;;0.50;0.50;;;12.70;99.90;;;;;;5084238;28;20428;-84
2024/03/29 11:09:42;;;;;;;0.60;0.50;;;12.90;99.90;;;;;;5080947;28;20476;-83
2024/03/29 11:12:12;;;;;;;0.50;0.50;;;13.10;99.90;;;;;;5075829;28;20437;-83
2024/03/29 11:14:43;;;;;;;0.50;0.40;;;13.60;99.90;;;;;;5074947;28;20815;-83
2024/03/29 11:17:12;;;;;;;0.50;0.40;;;14.40;99.90;;;;;;5074585;28;20477;-83
2024/03/29 11:19:40;;;;;;;0.50;0.40;;;14.70;99.90;;;;;;5075007;28;20439;-83
2024/03/29 11:22:09;;;;;;;2.00;0.60;;;14.90;99.90;;;;;;5075185;28;20454;-83
2024/03/29 11:24:35;;;;;;;0.50;0.40;;;15.10;99.90;;;;;;5075117;28;20437;-83
2024/03/29 11:27:10;;;;;;;0.50;0.50;;;15.10;99.90;;;;;;5080170;28;20443;-84
2024/03/29 11:29:41;;;;;;;1.23;1.13;;;15.60;99.90;;;;;;5082349;28;20481;-83
2024/03/29 11:32:10;;;;;;;1.43;0.67;;;16.10;99.90;;;;;;5082710;28;20458;-85
2024/03/29 11:34:44;;;;;;;0.80;0.50;;;15.80;99.90;;;;;;5076576;28;20473;-83
2024/03/29 11:37:12;;;;;;;0.60;0.60;;;15.60;99.90;;;;;;5077262;28;20814;-82
2024/03/29 11:39:40;;;;;;;0.50;0.40;;;15.20;99.90;;;;;;5076875;28;20435;-82
2024/03/29 11:42:08;;;;;;;0.50;0.40;;;15.00;99.90;;;;;;5076402;28;20917;-83
2024/03/29 11:44:35;;;;;;;0.90;0.50;;;15.00;99.90;;;;;;5075977;28;20443;-82
2024/03/29 11:47:06;;;;;;;0.60;0.60;;;14.90;99.90;;;;;;5075092;28;20446;-82
2024/03/29 11:49:33;;;;;;;0.50;0.40;;;14.70;99.90;;;;;;5076970;28;20864;-83
2024/03/29 11:52:04;;;;;;;0.50;0.40;;;14.70;99.90;;;;;;5075459;28;20438;-83
2024/03/29 11:54:38;;;;;;;0.50;0.40;;;14.60;99.90;;;;;;5075774;28;20929;-83
2024/03/29 11:57:05;;;;;;;0.87;0.87;;;14.50;99.90;;;;;;5074658;28;20441;-82
2024/03/29 11:59:33;;;;;;;1.70;1.60;;;14.30;99.90;;;;;;5074484;28;20442;-82
2024/03/29 12:02:00;;;;;;;0.83;0.83;;;14.10;99.90;;;;;;5074300;28;20809;-82
2024/03/29 12:04:29;;;;;;;0.50;0.40;;;13.60;99.90;;;;;;5073149;28;20435;-83
2024/03/29 12:06:56;;;;;;;1.23;0.50;;;13.20;99.90;;;;;;5073893;28;20436;-83
2024/03/29 12:09:23;;;;;;;0.50;0.40;;;12.90;99.90;;;;;;5072797;28;20888;-83
2024/03/29 12:11:50;;;;;;;0.60;0.53;;;12.70;99.90;;;;;;5072773;28;20428;-83
2024/03/29 12:14:17;;;;;;;0.50;0.40;;;12.60;99.90;;;;;;5072569;28;20467;-83
2024/03/29 12:16:46;;;;;;;2.00;0.73;;;12.50;99.90;;;;;;5073113;28;20795;-83
2024/03/29 12:19:23;;;;;;;0.50;0.40;;;12.50;99.90;;;;;;5072562;28;20453;-84
2024/03/29 12:21:50;;;;;;;0.50;0.40;;;12.60;99.90;;;;;;5081632;28;20502;-84
2024/03/29 12:24:17;;;;;;;0.50;0.40;;;12.80;99.90;;;;;;5080846;28;20437;-84
2024/03/29 12:26:44;;;;;;;0.50;0.47;;;12.90;99.90;;;;;;5080863;28;20452;-84
2024/03/29 12:29:11;;;;;;;0.50;0.40;;;13.00;99.90;;;;;;5081277;28;20539;-84
2024/03/29 12:31:39;;;;;;;0.50;0.50;;;13.20;99.90;;;;;;5080856;28;20445;-84
2024/03/29 12:34:07;;;;;;;0.50;0.40;;;13.30;99.90;;;;;;5081440;28;20471;-84
2024/03/29 12:36:34;;;;;;;0.50;0.40;;;13.50;99.90;;;;;;5082807;28;20462;-83
2024/03/29 12:39:02;;;;;;;0.50;0.40;;;13.70;99.90;;;;;;5081163;28;20462;-84
2024/03/29 12:41:30;;;;;;;0.50;0.40;;;13.90;99.90;;;;;;5081801;28;20947;-84
2024/03/29 12:43:57;;;;;;;0.50;0.40;;;14.00;99.90;;;;;;5081823;28;20809;-83
2024/03/29 12:46:24;;;;;;;0.70;0.50;;;14.10;99.90;;;;;;5084439;28;20441;-85
2024/03/29 12:48:58;;;;;;;0.50;0.50;;;14.20;99.90;;;;;;5085208;28;20476;-85
2024/03/29 12:51:28;;;;;;;4.53;0.70;;;14.60;99.90;;;;;;5085759;28;20436;-85
2024/03/29 12:53:55;;;;;;;0.70;0.50;;;14.60;99.90;;;;;;5085624;28;20507;-85
2024/03/29 12:56:22;;;;;;;0.50;0.40;;;14.70;99.90;;;;;;5085011;28;20439;-85
2024/03/29 12:58:49;;;;;;;0.70;0.50;;;14.70;99.90;;;;;;5084453;28;20822;-85
2024/03/29 13:01:16;;;;;;;1.37;0.63;;;15.00;99.90;;;;;;5085084;28;20445;-85
2024/03/29 13:03:44;;;;;;;0.50;0.40;;;15.60;99.90;;;;;;5085289;28;20477;-85
2024/03/29 13:06:12;;;;;;;0.60;0.40;;;16.00;99.90;;;;;;5085992;28;20438;-85
2024/03/29 13:08:40;;;;;;;0.50;0.40;;;16.30;99.90;;;;;;5083783;28;20841;-85
2024/03/29 13:11:07;;;;;;;0.60;0.40;;;17.00;99.90;;;;;;5084330;28;20451;-84
2024/03/29 13:13:33;;;;;;;0.50;0.50;;;17.50;99.90;;;;;;5083128;28;20469;-84
2024/03/29 13:16:00;;;;;;;0.80;0.57;;;17.30;99.90;;;;;;5084212;28;20447;-84
2024/03/29 13:18:27;;;;;;;0.50;0.40;;;17.00;99.90;;;;;;5083907;28;20467;-84
2024/03/29 13:20:56;;;;;;;0.50;0.40;;;16.70;99.90;;;;;;5083897;28;20439;-84
2024/03/29 13:23:23;;;;;;;0.60;0.40;;;16.50;99.90;;;;;;5083426;28;20446;-84
2024/03/29 13:25:53;;;;;;;0.50;0.30;;;16.70;99.90;;;;;;5083003;28;20432;-85
2024/03/29 13:28:19;;;;;;;0.50;0.40;;;17.00;99.90;;;;;;5083549;28;20460;-84
2024/03/29 13:30:48;;;;;;;0.50;0.40;;;16.80;99.90;;;;;;5084184;28;20431;-84
2024/03/29 13:33:14;;;;;;;6.13;0.50;;;16.70;99.90;;;;;;5086383;28;20518;-82
2024/03/29 13:35:44;;;;;;;2.00;0.77;;;16.50;99.90;;;;;;5088464;28;20434;-85
2024/03/29 13:38:12;;;;;;;0.50;0.50;;;16.00;99.90;;;;;;5083810;28;20529;-84
2024/03/29 13:40:39;;;;;;;0.90;0.67;;;15.70;99.90;;;;;;5085204;28;20431;-84
2024/03/29 13:43:08;;;;;;;0.60;0.40;;;15.70;99.90;;;;;;5086149;28;20448;-83
2024/03/29 13:45:35;;;;;;;0.50;0.40;;;16.00;99.90;;;;;;5087008;28;20484;-83
2024/03/29 13:48:02;;;;;;;0.50;0.30;;;16.60;99.90;;;;;;5082568;28;20523;-84
2024/03/29 13:50:28;;;;;;;0.50;0.40;;;17.00;99.90;;;;;;5083124;28;20472;-84
2024/03/29 13:52:55;;;;;;;0.60;0.50;;;18.00;99.90;;;;;;5082308;28;20439;-83
2024/03/29 13:55:25;;;;;;;0.50;0.40;;;18.30;99.90;;;;;;5081353;28;20259;-84
2024/03/29 13:57:53;;;;;;;0.60;0.43;;;17.10;99.90;;;;;;5081914;28;20456;-84
2024/03/29 14:00:21;;;;;;;1.07;0.93;;;16.40;99.90;;;;;;5082924;28;20843;-84
2024/03/29 14:02:48;;;;;;;0.60;0.50;;;16.20;99.90;;;;;;5082271;28;20436;-84
2024/03/29 14:05:15;;;;;;;1.60;0.40;;;16.40;99.90;;;;;;5081804;28;20443;-83
2024/03/29 14:07:41;;;;;;;0.50;0.40;;;16.80;99.90;;;;;;5082199;28;20475;-84
2024/03/29 14:10:09;;;;;;;1.00;0.87;;;17.60;99.90;;;;;;5085934;28;20472;-84
2024/03/29 14:12:36;;;;;;;0.50;0.40;;;17.20;99.90;;;;;;5088068;28;20441;-82
2024/03/29 14:15:05;;;;;;;0.50;0.40;;;16.90;99.90;;;;;;5088443;28;20443;-84
2024/03/29 14:17:33;;;;;;;0.50;0.30;;;16.80;99.90;;;;;;5087991;28;20528;-82
2024/03/29 14:20:00;;;;;;;0.50;0.40;;;16.90;99.90;;;;;;5086029;28;20440;-82
2024/03/29 14:22:29;;;;;;;0.60;0.50;;;16.80;99.90;;;;;;5085999;28;20452;-83
2024/03/29 14:24:56;;;;;;;0.60;0.40;;;16.80;99.90;;;;;;5087708;28;20451;-84
2024/03/29 14:27:24;;;;;;;0.50;0.40;;;16.60;99.90;;;;;;5085452;28;20456;-84
2024/03/29 14:29:50;;;;;;;0.60;0.40;;;16.40;99.90;;;;;;5083819;28;20498;-83
2024/03/29 14:32:17;;;;;;;1.73;0.70;;;16.30;99.90;;;;;;5083799;28;20435;-83
2024/03/29 14:34:46;;;;;;;0.57;0.40;;;16.40;99.90;;;;;;5083018;28;20446;-82
2024/03/29 14:37:15;;;;;;;0.50;0.40;;;16.30;99.90;;;;;;5082504;28;20826;-83
2024/03/29 14:39:43;;;;;;;0.50;0.40;;;16.20;99.90;;;;;;5081939;28;20478;-84
2024/03/29 14:42:13;;;;;;;0.50;0.30;;;16.00;99.90;;;;;;5082072;28;20447;-84
2024/03/29 14:44:40;;;;;;;0.70;0.40;;;16.20;99.90;;;;;;5082120;28;20444;-82
2024/03/29 14:47:08;;;;;;;0.50;0.40;;;16.20;99.90;;;;;;5081958;28;20448;-83